Time;durP1;ratioP1;P1;durP2;ratioP2;P2;SDS_P1;SDS_P2;PMS_P1;PMS_P2;Temp;Humidity;BMP_temperature;BMP_pressure;BME280_temperature;BME280_humidity;BME280_pressure;Samples;Min_cycle;Max_cycle;Signal;HPM_P1;HPM_P2
2022/12/03 00:02:01;;;;;;;15.55;5.85;;;;;;;;;;4997058;28;20137;-66
2022/12/03 00:04:32;;;;;;;16.70;6.32;;;;;;;;;;4952178;28;20061;-68
2022/12/03 00:07:00;;;;;;;17.00;6.30;;;;;;;;;;4945836;28;20490;-67
2022/12/03 00:09:29;;;;;;;16.13;5.85;;;;;;;;;;4950252;28;20122;-66
2022/12/03 00:11:56;;;;;;;15.57;6.47;;;;;;;;;;4978951;28;20054;-66
2022/12/03 00:14:32;;;;;;;19.65;6.18;;;;;;;;;;5000634;28;20124;-68
2022/12/03 00:17:08;;;;;;;17.52;6.10;;;;;;;;;;4996646;28;20054;-65
2022/12/03 00:19:42;;;;;;;17.23;6.38;;;;;;;;;;5026115;28;20092;-72
2022/12/03 00:22:08;;;;;;;17.13;6.13;;;;;;;;;;5022192;28;20204;-69
2022/12/03 00:24:36;;;;;;;16.48;5.63;;;;;;;;;;4993455;28;20066;-66
2022/12/03 00:27:08;;;;;;;20.52;6.60;;;;;;;;;;4999347;28;20081;-70
2022/12/03 00:29:34;;;;;;;17.60;6.70;;;;;;;;;;4975048;28;20045;-63
2022/12/03 00:32:01;;;;;;;19.92;6.80;;;;;;;;;;5020834;28;20123;-71
2022/12/03 00:34:29;;;;;;;15.43;6.35;;;;;;;;;;5009857;28;20065;-65
2022/12/03 00:36:55;;;;;;;17.48;6.63;;;;;;;;;;5002017;28;20075;-65
2022/12/03 00:39:22;;;;;;;16.75;6.32;;;;;;;;;;4986690;28;20116;-70
2022/12/03 00:41:49;;;;;;;16.30;6.50;;;;;;;;;;5010460;28;20057;-66
2022/12/03 00:44:16;;;;;;;17.15;6.50;;;;;;;;;;5019127;28;20084;-71
2022/12/03 00:46:48;;;;;;;17.05;5.95;;;;;;;;;;4975581;28;20265;-66
2022/12/03 00:49:18;;;;;;;17.65;7.05;;;;;;;;;;4967175;28;20093;-72
2022/12/03 00:51:51;;;;;;;19.00;7.70;;;;;;;;;;4955220;28;20085;-66
2022/12/03 00:54:28;;;;;;;16.90;6.80;;;;;;;;;;4940773;28;20051;-69
2022/12/03 00:56:56;;;;;;;17.88;6.50;;;;;;;;;;4921014;28;20157;-65
2022/12/03 00:59:24;;;;;;;17.30;6.80;;;;;;;;;;4950238;28;20058;-66
2022/12/03 01:01:51;;;;;;;18.38;6.63;;;;;;;;;;4950997;28;20336;-69
2022/12/03 01:04:18;;;;;;;18.25;6.57;;;;;;;;;;4949822;28;20754;-71
2022/12/03 01:07:01;;;;;;;19.35;6.60;;;;;;;;;;4924095;28;20073;-66
2022/12/03 01:09:30;;;;;;;19.90;7.45;;;;;;;;;;4956491;28;20062;-70
2022/12/03 01:12:00;;;;;;;20.52;7.18;;;;;;;;;;4985232;28;20132;-71
2022/12/03 01:14:30;;;;;;;19.38;6.72;;;;;;;;;;4999356;28;21616;-69
2022/12/03 01:16:57;;;;;;;18.50;7.05;;;;;;;;;;4952066;28;20062;-72
2022/12/03 01:19:24;;;;;;;20.67;7.32;;;;;;;;;;5015463;28;20211;-69
2022/12/03 01:21:52;;;;;;;19.42;7.57;;;;;;;;;;4991502;28;20108;-68
2022/12/03 01:24:19;;;;;;;18.98;7.00;;;;;;;;;;5000547;28;20057;-68
2022/12/03 01:26:45;;;;;;;19.17;6.93;;;;;;;;;;5025259;28;20092;-64
2022/12/03 01:29:12;;;;;;;19.63;7.45;;;;;;;;;;5006851;28;20306;-67
2022/12/03 01:34:22;;;;;;;23.23;7.72;;;;;;;;;;5031203;28;20064;-70
2022/12/03 01:36:51;;;;;;;16.98;6.43;;;;;;;;;;5015964;28;20061;-71
2022/12/03 01:39:19;;;;;;;19.27;6.85;;;;;;;;;;5011688;28;20456;-65
2022/12/03 01:41:46;;;;;;;17.05;6.53;;;;;;;;;;5031158;28;20056;-73
2022/12/03 01:44:15;;;;;;;18.27;6.93;;;;;;;;;;5017697;28;20088;-68
2022/12/03 01:46:41;;;;;;;23.42;7.53;;;;;;;;;;5019479;28;20136;-67
2022/12/03 01:49:09;;;;;;;20.27;6.75;;;;;;;;;;5006399;28;20045;-67
2022/12/03 01:51:35;;;;;;;20.88;7.45;;;;;;;;;;5018863;28;20056;-70
2022/12/03 01:54:02;;;;;;;19.88;7.55;;;;;;;;;;5026266;28;20048;-71
2022/12/03 01:56:30;;;;;;;20.98;7.75;;;;;;;;;;4994439;28;20071;-66
2022/12/03 01:58:57;;;;;;;21.52;6.75;;;;;;;;;;5010449;28;20155;-66
2022/12/03 02:01:23;;;;;;;19.70;7.25;;;;;;;;;;5001691;28;20064;-66
2022/12/03 02:03:50;;;;;;;17.02;6.60;;;;;;;;;;5020197;28;20086;-70
2022/12/03 02:06:17;;;;;;;18.25;6.38;;;;;;;;;;5018481;28;20511;-65
2022/12/03 02:08:44;;;;;;;22.88;7.82;;;;;;;;;;5016895;28;20048;-64
2022/12/03 02:11:16;;;;;;;21.58;7.85;;;;;;;;;;5044729;28;20125;-73
2022/12/03 02:13:44;;;;;;;22.02;7.30;;;;;;;;;;5010058;28;20106;-65
2022/12/03 02:16:11;;;;;;;20.73;6.80;;;;;;;;;;5017602;28;20129;-65
2022/12/03 02:18:37;;;;;;;22.00;7.47;;;;;;;;;;5030702;28;20376;-69
2022/12/03 02:21:08;;;;;;;20.45;7.65;;;;;;;;;;5011075;28;20089;-71
2022/12/03 02:23:37;;;;;;;20.23;7.07;;;;;;;;;;5017337;28;20056;-69
2022/12/03 02:26:05;;;;;;;17.58;6.72;;;;;;;;;;5005861;28;20114;-67
2022/12/03 02:28:32;;;;;;;19.70;7.22;;;;;;;;;;5022499;28;20052;-66
2022/12/03 02:30:59;;;;;;;20.33;7.68;;;;;;;;;;5047800;28;20078;-69
2022/12/03 02:33:25;;;;;;;21.38;7.60;;;;;;;;;;5039377;28;20135;-67
2022/12/03 02:35:52;;;;;;;18.75;7.57;;;;;;;;;;5012415;28;20521;-67
2022/12/03 02:38:20;;;;;;;19.95;7.57;;;;;;;;;;5036832;28;20071;-67
2022/12/03 02:40:48;;;;;;;21.20;8.27;;;;;;;;;;5036175;28;20083;-71
2022/12/03 02:43:16;;;;;;;20.42;8.25;;;;;;;;;;5036834;28;20049;-69
2022/12/03 02:45:43;;;;;;;18.77;6.88;;;;;;;;;;4988248;28;20053;-70
2022/12/03 02:48:11;;;;;;;18.65;7.25;;;;;;;;;;5015295;28;20060;-69
2022/12/03 02:50:40;;;;;;;19.08;6.43;;;;;;;;;;5008882;28;20052;-69
2022/12/03 02:53:08;;;;;;;19.35;7.65;;;;;;;;;;5022569;28;20056;-69
2022/12/03 02:55:35;;;;;;;25.13;8.07;;;;;;;;;;4980022;28;20482;-72
2022/12/03 02:58:03;;;;;;;22.95;7.60;;;;;;;;;;5006994;28;20089;-70
2022/12/03 03:00:31;;;;;;;23.10;7.90;;;;;;;;;;5025700;28;20053;-69
2022/12/03 03:02:57;;;;;;;19.63;7.80;;;;;;;;;;4980870;28;20057;-72
2022/12/03 03:05:24;;;;;;;19.38;7.68;;;;;;;;;;5015150;28;20123;-72
2022/12/03 03:07:51;;;;;;;20.45;7.55;;;;;;;;;;5008210;28;20056;-70
2022/12/03 03:10:20;;;;;;;22.15;7.57;;;;;;;;;;5014812;28;20053;-70
2022/12/03 03:12:47;;;;;;;19.80;7.85;;;;;;;;;;5011474;28;20068;-69
2022/12/03 03:15:13;;;;;;;22.13;8.45;;;;;;;;;;5012642;28;20048;-68
2022/12/03 03:17:42;;;;;;;22.65;8.30;;;;;;;;;;5011775;28;20111;-71
2022/12/03 03:20:09;;;;;;;;;;;;;;;;;;5000964;28;20075;-67
2022/12/03 03:22:37;;;;;;;19.27;6.45;;;;;;;;;;4993101;28;20070;-69
2022/12/03 03:25:04;;;;;;;20.10;7.53;;;;;;;;;;5015232;28;20099;-66
2022/12/03 03:27:30;;;;;;;23.83;8.50;;;;;;;;;;5011424;28;20153;-73
2022/12/03 03:29:58;;;;;;;19.60;7.07;;;;;;;;;;5026619;28;20106;-73
2022/12/03 03:32:24;;;;;;;21.13;7.68;;;;;;;;;;5020082;28;20103;-72
2022/12/03 03:34:52;;;;;;;21.73;8.25;;;;;;;;;;5024108;28;20069;-62
2022/12/03 03:37:19;;;;;;;26.87;8.27;;;;;;;;;;5024237;28;20147;-69
2022/12/03 03:39:45;;;;;;;20.73;7.35;;;;;;;;;;5036403;28;20291;-67
2022/12/03 03:42:12;;;;;;;22.42;8.48;;;;;;;;;;5025080;28;20049;-70
2022/12/03 03:44:39;;;;;;;20.25;7.88;;;;;;;;;;5012009;28;20057;-71
2022/12/03 03:47:06;;;;;;;21.42;7.50;;;;;;;;;;4993928;28;20152;-72
2022/12/03 03:49:32;;;;;;;22.83;7.78;;;;;;;;;;5028855;28;20060;-70
2022/12/03 03:52:00;;;;;;;19.48;7.22;;;;;;;;;;5026233;28;20053;-70
2022/12/03 03:54:27;;;;;;;21.90;7.47;;;;;;;;;;4976563;28;20057;-66
2022/12/03 03:56:53;;;;;;;21.58;8.63;;;;;;;;;;4978988;28;20053;-67
2022/12/03 03:59:20;;;;;;;23.80;8.45;;;;;;;;;;4970876;28;20066;-68
2022/12/03 04:01:46;;;;;;;21.63;8.38;;;;;;;;;;4995672;28;20057;-72
2022/12/03 04:04:17;;;;;;;22.27;7.82;;;;;;;;;;4973415;28;20054;-71
2022/12/03 04:06:43;;;;;;;21.85;7.97;;;;;;;;;;4975385;28;20062;-67
2022/12/03 04:09:11;;;;;;;21.30;8.43;;;;;;;;;;4981668;28;20116;-64
2022/12/03 04:14:21;;;;;;;22.23;7.80;;;;;;;;;;4963168;28;20053;-66
2022/12/03 04:16:48;;;;;;;22.48;8.23;;;;;;;;;;4958810;28;20085;-68
2022/12/03 04:19:14;;;;;;;21.45;8.55;;;;;;;;;;4961438;28;20111;-65
2022/12/03 04:24:26;;;;;;;22.50;7.78;;;;;;;;;;4989468;28;20128;-63
2022/12/03 04:29:36;;;;;;;19.83;8.45;;;;;;;;;;4963687;28;20093;-69
2022/12/03 04:37:33;;;;;;;17.38;7.30;;;;;;;;;;4995912;28;20049;-70
2022/12/03 04:40:59;;;;;;;21.13;7.85;;;;;;;;;;4983643;28;20065;-67
2022/12/03 04:42:48;;;;;;;21.13;7.53;;;;;;;;;;4991253;28;20050;-68
2022/12/03 04:45:14;;;;;;;18.85;7.30;;;;;;;;;;4968368;28;20061;-70
2022/12/03 04:47:41;;;;;;;22.48;8.80;;;;;;;;;;4978298;28;20117;-65
2022/12/03 04:50:07;;;;;;;21.75;7.65;;;;;;;;;;4982146;28;20062;-70
2022/12/03 04:52:34;;;;;;;17.77;7.55;;;;;;;;;;4983976;28;20057;-67
2022/12/03 04:55:02;;;;;;;22.50;8.15;;;;;;;;;;5014054;28;20178;-72
2022/12/03 04:57:29;;;;;;;21.70;8.00;;;;;;;;;;4993868;28;20240;-69
2022/12/03 04:59:55;;;;;;;18.88;7.13;;;;;;;;;;5002565;28;20045;-68
2022/12/03 05:02:22;;;;;;;21.00;7.80;;;;;;;;;;5001336;28;20057;-71
2022/12/03 05:04:48;;;;;;;18.67;7.80;;;;;;;;;;4987898;28;20057;-69
2022/12/03 05:07:15;;;;;;;19.08;7.32;;;;;;;;;;5009830;28;20189;-70
2022/12/03 05:09:41;;;;;;;22.35;8.20;;;;;;;;;;5000837;28;20050;-66
2022/12/03 05:12:09;;;;;;;18.08;6.85;;;;;;;;;;5020223;28;20057;-69
2022/12/03 05:14:35;;;;;;;25.10;7.90;;;;;;;;;;5035711;28;20115;-65
2022/12/03 05:17:02;;;;;;;21.58;8.25;;;;;;;;;;5015306;28;20492;-69
2022/12/03 05:22:09;;;;;;;18.27;7.28;;;;;;;;;;4997445;28;20061;-69
2022/12/03 05:24:35;;;;;;;20.77;6.88;;;;;;;;;;5004715;28;20076;-65
2022/12/03 05:27:02;;;;;;;17.30;6.72;;;;;;;;;;5010101;28;20084;-66
2022/12/03 05:29:30;;;;;;;17.70;7.10;;;;;;;;;;5023698;28;20103;-69
2022/12/03 05:31:56;;;;;;;19.20;6.37;;;;;;;;;;4987805;28;20057;-66
2022/12/03 05:34:23;;;;;;;19.10;7.10;;;;;;;;;;4988640;28;20315;-68
2022/12/03 05:36:49;;;;;;;19.50;7.25;;;;;;;;;;5022695;28;20081;-69
2022/12/03 05:39:16;;;;;;;17.00;7.78;;;;;;;;;;4990814;28;20057;-69
2022/12/03 05:44:30;;;;;;;19.02;7.25;;;;;;;;;;4958818;28;20057;-68
2022/12/03 05:46:57;;;;;;;23.80;7.10;;;;;;;;;;5014212;28;20283;-72
2022/12/03 05:49:23;;;;;;;19.02;7.20;;;;;;;;;;5009699;28;20049;-64
2022/12/03 05:51:50;;;;;;;24.48;8.05;;;;;;;;;;5014383;28;20201;-69
2022/12/03 05:54:16;;;;;;;20.77;7.85;;;;;;;;;;5018514;28;20045;-69
2022/12/03 05:56:43;;;;;;;18.52;6.82;;;;;;;;;;4982761;28;20058;-69
2022/12/03 05:59:10;;;;;;;19.25;7.55;;;;;;;;;;4993044;28;20054;-67
2022/12/03 06:01:38;;;;;;;23.10;7.90;;;;;;;;;;4996004;28;20058;-69
2022/12/03 06:04:05;;;;;;;18.73;6.90;;;;;;;;;;4993667;28;20062;-72
2022/12/03 06:06:31;;;;;;;17.83;6.78;;;;;;;;;;4981382;28;20108;-63
2022/12/03 06:08:58;;;;;;;21.75;8.07;;;;;;;;;;4993657;28;20119;-68
2022/12/03 06:11:24;;;;;;;18.13;6.97;;;;;;;;;;5005212;28;23357;-67
2022/12/03 06:13:51;;;;;;;17.13;6.88;;;;;;;;;;5003346;28;20180;-70
2022/12/03 06:16:17;;;;;;;17.40;7.07;;;;;;;;;;4996781;28;20057;-67
2022/12/03 06:18:45;;;;;;;21.45;7.60;;;;;;;;;;5012415;28;20069;-73
2022/12/03 06:21:12;;;;;;;20.37;7.33;;;;;;;;;;5009269;28;20062;-67
2022/12/03 06:23:43;;;;;;;18.52;6.88;;;;;;;;;;5009668;28;20312;-68
2022/12/03 06:26:09;;;;;;;21.17;7.68;;;;;;;;;;4987889;28;20162;-68
2022/12/03 06:28:36;;;;;;;17.90;6.68;;;;;;;;;;5025303;28;20112;-70
2022/12/03 06:31:02;;;;;;;24.40;9.02;;;;;;;;;;5024916;28;20061;-67
2022/12/03 06:33:29;;;;;;;20.50;7.50;;;;;;;;;;4983500;28;20049;-68
2022/12/03 06:35:57;;;;;;;21.02;8.52;;;;;;;;;;5014928;28;20053;-64
2022/12/03 06:38:23;;;;;;;22.30;7.60;;;;;;;;;;5031286;28;20155;-67
2022/12/03 06:40:50;;;;;;;20.85;7.57;;;;;;;;;;5018594;28;20291;-70
2022/12/03 06:43:17;;;;;;;22.77;8.32;;;;;;;;;;4994181;28;20057;-65
2022/12/03 06:45:44;;;;;;;19.75;7.35;;;;;;;;;;5038206;28;20060;-70
2022/12/03 06:48:10;;;;;;;21.23;7.97;;;;;;;;;;5020858;28;20048;-69
2022/12/03 06:50:37;;;;;;;19.95;7.30;;;;;;;;;;5031785;28;20230;-68
2022/12/03 06:53:05;;;;;;;22.42;8.30;;;;;;;;;;5026612;28;20058;-67
2022/12/03 06:55:31;;;;;;;21.48;7.47;;;;;;;;;;5006461;28;20065;-70
2022/12/03 06:57:58;;;;;;;20.58;7.22;;;;;;;;;;5015034;28;20053;-69
2022/12/03 07:00:24;;;;;;;22.58;7.53;;;;;;;;;;5006992;28;20049;-64
2022/12/03 07:02:51;;;;;;;23.30;8.85;;;;;;;;;;5013462;28;20153;-69
2022/12/03 07:05:18;;;;;;;18.17;7.03;;;;;;;;;;4998066;28;20105;-69
2022/12/03 07:07:49;;;;;;;19.13;7.40;;;;;;;;;;5006940;28;20063;-65
2022/12/03 07:10:16;;;;;;;18.65;7.13;;;;;;;;;;5039215;28;20049;-66
2022/12/03 07:12:43;;;;;;;23.80;8.27;;;;;;;;;;5029593;28;20053;-69
2022/12/03 07:15:10;;;;;;;24.00;7.43;;;;;;;;;;5023483;28;20060;-68
2022/12/03 07:17:36;;;;;;;19.38;7.38;;;;;;;;;;5018944;28;20063;-71
2022/12/03 07:20:04;;;;;;;21.60;8.63;;;;;;;;;;5017498;28;20057;-68
2022/12/03 07:22:30;;;;;;;22.00;8.20;;;;;;;;;;5017601;28;20057;-68
2022/12/03 07:24:57;;;;;;;20.02;7.75;;;;;;;;;;5021111;28;20235;-66
2022/12/03 07:27:27;;;;;;;17.27;6.97;;;;;;;;;;4995164;28;20087;-67
2022/12/03 07:29:56;;;;;;;21.38;8.00;;;;;;;;;;5025790;28;20045;-69
2022/12/03 07:32:23;;;;;;;18.02;7.18;;;;;;;;;;5003099;28;20132;-65
2022/12/03 07:34:49;;;;;;;19.50;7.95;;;;;;;;;;5048963;28;20143;-68
2022/12/03 07:37:16;;;;;;;23.35;7.03;;;;;;;;;;5031577;28;20076;-69
2022/12/03 07:39:42;;;;;;;20.10;7.28;;;;;;;;;;5033725;28;20134;-63
2022/12/03 07:42:09;;;;;;;19.77;7.82;;;;;;;;;;5003337;28;20416;-72
2022/12/03 07:44:37;;;;;;;21.23;8.32;;;;;;;;;;5006530;28;20055;-71
2022/12/03 07:47:03;;;;;;;21.45;8.05;;;;;;;;;;5001609;28;20143;-73
2022/12/03 07:49:30;;;;;;;19.08;7.75;;;;;;;;;;5028072;28;21439;-68
2022/12/03 07:51:56;;;;;;;19.85;7.80;;;;;;;;;;5018440;28;20064;-68
2022/12/03 07:54:23;;;;;;;26.52;8.30;;;;;;;;;;5014475;28;20048;-68
2022/12/03 07:56:52;;;;;;;22.58;8.02;;;;;;;;;;5030901;28;20064;-67
2022/12/03 07:59:19;;;;;;;22.67;8.07;;;;;;;;;;5026792;28;20057;-69
2022/12/03 08:01:47;;;;;;;23.08;7.68;;;;;;;;;;5031459;28;20061;-71
2022/12/03 08:04:17;;;;;;;21.63;7.68;;;;;;;;;;5026659;28;20079;-64
2022/12/03 08:06:43;;;;;;;22.02;8.70;;;;;;;;;;5020029;28;20117;-67
2022/12/03 08:09:10;;;;;;;19.77;7.75;;;;;;;;;;5026238;28;20155;-67
2022/12/03 08:11:36;;;;;;;18.13;7.20;;;;;;;;;;5028092;28;20060;-64
2022/12/03 08:14:07;;;;;;;20.17;8.20;;;;;;;;;;4991685;28;20120;-69
2022/12/03 08:16:36;;;;;;;21.73;8.27;;;;;;;;;;5014397;28;20118;-69
2022/12/03 08:19:06;;;;;;;22.33;8.57;;;;;;;;;;5001657;28;20053;-70
2022/12/03 08:21:34;;;;;;;23.23;7.97;;;;;;;;;;5016930;28;20061;-68
2022/12/03 08:24:08;;;;;;;21.75;8.85;;;;;;;;;;5024275;28;20121;-71
2022/12/03 08:26:35;;;;;;;21.10;8.00;;;;;;;;;;5029504;28;20067;-71
2022/12/03 08:29:02;;;;;;;26.23;8.27;;;;;;;;;;5012678;28;20045;-64
2022/12/03 08:31:31;;;;;;;27.73;8.77;;;;;;;;;;5015222;28;21702;-67
2022/12/03 08:33:59;;;;;;;24.02;8.07;;;;;;;;;;4998850;28;20056;-68
2022/12/03 08:36:29;;;;;;;22.50;8.38;;;;;;;;;;5023461;28;20055;-67
2022/12/03 08:38:58;;;;;;;22.70;8.43;;;;;;;;;;5017944;28;20044;-67
2022/12/03 08:44:21;;;;;;;19.15;7.95;;;;;;;;;;4946136;28;20048;-68
2022/12/03 08:46:49;;;;;;;23.95;9.05;;;;;;;;;;5018648;28;20057;-73
2022/12/03 08:49:16;;;;;;;29.25;9.65;;;;;;;;;;5026386;28;20060;-72
2022/12/03 08:51:46;;;;;;;28.77;8.43;;;;;;;;;;5042127;28;20086;-73
2022/12/03 08:54:19;;;;;;;28.55;8.98;;;;;;;;;;5049325;28;20048;-62
2022/12/03 08:56:45;;;;;;;30.02;8.75;;;;;;;;;;5041625;28;20121;-69
2022/12/03 08:59:21;;;;;;;25.92;9.15;;;;;;;;;;5012516;28;20056;-64
2022/12/03 09:01:48;;;;;;;23.60;8.30;;;;;;;;;;5040067;28;20061;-66
2022/12/03 09:04:19;;;;;;;28.23;8.98;;;;;;;;;;4993874;28;20140;-68
2022/12/03 09:06:47;;;;;;;28.73;8.90;;;;;;;;;;5026634;28;20053;-70
2022/12/03 09:09:14;;;;;;;26.98;9.32;;;;;;;;;;5026265;28;20048;-69
2022/12/03 09:11:42;;;;;;;29.35;9.73;;;;;;;;;;5022652;28;20102;-73
2022/12/03 09:14:08;;;;;;;25.67;9.80;;;;;;;;;;5033460;28;20049;-67
2022/12/03 09:16:35;;;;;;;30.33;9.73;;;;;;;;;;5020545;28;20064;-71
2022/12/03 09:19:02;;;;;;;24.33;9.13;;;;;;;;;;5021306;28;20052;-67
2022/12/03 09:21:28;;;;;;;26.48;9.43;;;;;;;;;;5034736;28;20388;-70
2022/12/03 09:24:01;;;;;;;28.65;9.13;;;;;;;;;;5038253;28;20088;-65
2022/12/03 09:26:28;;;;;;;27.10;9.25;;;;;;;;;;5027719;28;20123;-72
2022/12/03 09:28:55;;;;;;;26.98;9.52;;;;;;;;;;5037382;28;20053;-69
2022/12/03 09:31:21;;;;;;;26.73;9.40;;;;;;;;;;5010689;28;20379;-72
2022/12/03 09:33:48;;;;;;;27.83;10.00;;;;;;;;;;5000705;28;20091;-71
2022/12/03 09:36:15;;;;;;;29.75;9.45;;;;;;;;;;5002917;28;20139;-70
2022/12/03 09:38:41;;;;;;;24.67;8.68;;;;;;;;;;5020039;28;20060;-68
2022/12/03 09:41:10;;;;;;;30.15;9.43;;;;;;;;;;5014978;28;20057;-67
2022/12/03 09:43:36;;;;;;;26.08;9.20;;;;;;;;;;5037257;28;20068;-63
2022/12/03 09:46:03;;;;;;;30.08;9.68;;;;;;;;;;5024599;28;20057;-70
2022/12/03 09:48:29;;;;;;;25.42;9.02;;;;;;;;;;5020729;28;20049;-72
2022/12/03 09:50:56;;;;;;;27.20;8.65;;;;;;;;;;5018997;28;20080;-73
2022/12/03 09:53:25;;;;;;;29.10;10.90;;;;;;;;;;4995794;28;20262;-73
2022/12/03 09:55:51;;;;;;;;;;;;;;;;;;5008319;28;20053;-69
2022/12/03 09:58:20;;;;;;;24.27;7.40;;;;;;;;;;5018070;28;19984;-74
2022/12/03 10:03:57;;;;;;;24.45;8.55;;;;;;;;;;4969123;28;20085;-73
2022/12/03 10:06:24;;;;;;;31.80;9.13;;;;;;;;;;5002837;28;20049;-71
2022/12/03 10:08:55;;;;;;;31.38;9.48;;;;;;;;;;5030219;28;20135;-71
2022/12/03 10:11:31;;;;;;;28.23;9.60;;;;;;;;;;5018388;28;21499;-66
2022/12/03 10:14:26;;;;;;;25.83;8.32;;;;;;;;;;4978930;28;20053;-69
2022/12/03 10:17:34;;;;;;;31.60;9.00;;;;;;;;;;5023484;28;20212;-74
2022/12/03 10:22:48;;;;;;;30.48;9.10;;;;;;;;;;4976614;28;20220;-76
2022/12/03 10:25:16;;;;;;;29.92;9.23;;;;;;;;;;4986371;28;20060;-74
2022/12/03 10:27:55;;;;;;;25.98;8.18;;;;;;;;;;4999027;28;20053;-66
2022/12/03 10:30:27;;;;;;;24.40;8.25;;;;;;;;;;5028715;28;20135;-74
2022/12/03 10:32:56;;;;;;;28.15;8.63;;;;;;;;;;5010885;28;20061;-69
2022/12/03 10:35:30;;;;;;;24.67;8.75;;;;;;;;;;5003397;28;20056;-67
2022/12/03 10:37:58;;;;;;;24.00;7.50;;;;;;;;;;5036317;28;20045;-71
2022/12/03 10:40:29;;;;;;;26.90;8.40;;;;;;;;;;5018735;28;20080;-69
2022/12/03 10:43:16;;;;;;;25.45;9.00;;;;;;;;;;5000907;28;20215;-67
2022/12/03 10:45:46;;;;;;;24.45;8.23;;;;;;;;;;5001348;28;20049;-75
2022/12/03 10:48:20;;;;;;;25.48;8.85;;;;;;;;;;4992177;28;22745;-71
2022/12/03 10:50:53;;;;;;;26.42;7.57;;;;;;;;;;5010676;28;20059;-67
2022/12/03 10:53:22;;;;;;;24.95;7.25;;;;;;;;;;4956921;28;20092;-69
2022/12/03 10:55:51;;;;;;;26.90;8.52;;;;;;;;;;5022457;28;20134;-71
2022/12/03 10:58:20;;;;;;;30.98;8.65;;;;;;;;;;5018808;28;20080;-72
2022/12/03 11:00:46;;;;;;;23.75;7.63;;;;;;;;;;5014533;28;20080;-66
2022/12/03 11:03:26;;;;;;;25.75;7.82;;;;;;;;;;4996628;28;20051;-66
2022/12/03 11:05:54;;;;;;;24.63;7.65;;;;;;;;;;5012809;28;20172;-68
2022/12/03 11:08:24;;;;;;;23.13;7.13;;;;;;;;;;5008233;28;20044;-72
2022/12/03 11:10:58;;;;;;;21.35;8.35;;;;;;;;;;5026385;28;20064;-67
2022/12/03 11:13:44;;;;;;;23.67;6.82;;;;;;;;;;4975341;28;20066;-64
2022/12/03 11:16:11;;;;;;;22.00;7.03;;;;;;;;;;5043661;28;20116;-74
2022/12/03 11:18:59;;;;;;;22.73;6.95;;;;;;;;;;5012862;28;20187;-67
2022/12/03 11:21:30;;;;;;;25.80;8.00;;;;;;;;;;5008986;28;20270;-71
2022/12/03 11:24:26;;;;;;;26.83;8.18;;;;;;;;;;4987248;28;20056;-71
2022/12/03 11:27:22;;;;;;;20.33;7.65;;;;;;;;;;5010431;28;20228;-69
2022/12/03 11:30:02;;;;;;;18.80;6.53;;;;;;;;;;5024427;28;20057;-71
2022/12/03 11:36:22;;;;;;;23.60;7.47;;;;;;;;;;4925973;28;20121;-72
2022/12/03 11:38:55;;;;;;;18.58;7.28;;;;;;;;;;4933622;28;20129;-71
2022/12/03 11:41:26;;;;;;;17.92;6.53;;;;;;;;;;4926097;28;20407;-72
2022/12/03 11:44:31;;;;;;;21.67;6.22;;;;;;;;;;4934361;28;20063;-72
2022/12/03 11:50:20;;;;;;;20.15;6.70;;;;;;;;;;4821758;29;20063;-73
2022/12/03 11:52:47;;;;;;;18.17;6.50;;;;;;;;;;4831654;29;20362;-74
2022/12/03 11:55:18;;;;;;;23.83;7.75;;;;;;;;;;4868931;29;20056;-76
2022/12/03 11:57:47;;;;;;;24.52;7.97;;;;;;;;;;4888829;29;20064;-69
2022/12/03 12:00:26;;;;;;;22.25;7.63;;;;;;;;;;4855382;29;20056;-67
2022/12/03 12:05:40;;;;;;;22.20;7.03;;;;;;;;;;4801590;29;20052;-70
2022/12/03 12:08:17;;;;;;;19.92;7.32;;;;;;;;;;4846764;29;20125;-73
2022/12/03 12:10:53;;;;;;;20.48;7.43;;;;;;;;;;4891174;29;20055;-70
2022/12/03 12:13:57;;;;;;;19.50;6.38;;;;;;;;;;4951718;28;20283;-74
2022/12/03 12:16:48;;;;;;;20.15;6.45;;;;;;;;;;4931006;28;20073;-72
2022/12/03 12:19:42;;;;;;;21.55;7.30;;;;;;;;;;4985495;28;20053;-71
2022/12/03 12:22:13;;;;;;;19.65;6.13;;;;;;;;;;5008150;28;20048;-69
2022/12/03 12:24:45;;;;;;;17.92;6.50;;;;;;;;;;4963086;28;20132;-72
2022/12/03 12:27:14;;;;;;;20.80;6.53;;;;;;;;;;5007924;28;20476;-71
2022/12/03 12:29:44;;;;;;;;;;;;;;;;;;4988410;28;20059;-69
2022/12/03 12:32:22;;;;;;;13.77;4.72;;;;;;;;;;5038486;28;19925;-74
2022/12/03 12:34:50;;;;;;;20.42;5.57;;;;;;;;;;5012182;28;20105;-68
2022/12/03 12:40:45;;;;;;;21.77;6.70;;;;;;;;;;4961242;28;20046;-74
2022/12/03 12:43:38;;;;;;;21.65;6.45;;;;;;;;;;4957113;28;20077;-71
2022/12/03 12:46:29;;;;;;;18.23;6.65;;;;;;;;;;4940153;28;20058;-71
2022/12/03 12:48:59;;;;;;;20.00;6.90;;;;;;;;;;4974536;28;20048;-68
2022/12/03 12:51:45;;;;;;;18.98;6.18;;;;;;;;;;4967987;28;20064;-67
2022/12/03 12:54:12;;;;;;;24.33;7.45;;;;;;;;;;4933996;28;20058;-72
2022/12/03 12:56:42;;;;;;;24.07;7.53;;;;;;;;;;4951268;28;20059;-72
2022/12/03 12:59:25;;;;;;;20.83;6.97;;;;;;;;;;4975108;28;20048;-69
2022/12/03 13:01:54;;;;;;;22.40;7.00;;;;;;;;;;4971339;28;20058;-68
2022/12/03 13:04:27;;;;;;;19.75;7.03;;;;;;;;;;4973556;28;20075;-69
2022/12/03 13:06:59;;;;;;;25.20;7.07;;;;;;;;;;4997496;28;20056;-74
2022/12/03 13:09:31;;;;;;;26.88;7.85;;;;;;;;;;5009964;28;20067;-74
2022/12/03 13:11:59;;;;;;;21.50;7.00;;;;;;;;;;5007709;28;20057;-71
2022/12/03 13:14:35;;;;;;;22.95;7.55;;;;;;;;;;4984562;28;20056;-68
2022/12/03 13:17:13;;;;;;;26.23;7.68;;;;;;;;;;4985415;28;20083;-72
2022/12/03 13:23:13;;;;;;;20.05;7.28;;;;;;;;;;4933057;28;20086;-72
2022/12/03 13:25:53;;;;;;;24.90;8.18;;;;;;;;;;4910145;28;20054;-71
2022/12/03 13:28:34;;;;;;;22.80;7.57;;;;;;;;;;4938432;28;20128;-68
2022/12/03 13:31:25;;;;;;;26.00;8.00;;;;;;;;;;4978018;28;20046;-71
2022/12/03 13:33:57;;;;;;;25.10;7.90;;;;;;;;;;4948087;28;20054;-69
2022/12/03 13:36:34;;;;;;;27.08;8.23;;;;;;;;;;4913575;28;20142;-74
2022/12/03 13:39:13;;;;;;;23.27;7.60;;;;;;;;;;4989519;28;20066;-70
2022/12/03 13:44:34;;;;;;;29.52;9.02;;;;;;;;;;4959020;28;20049;-70
2022/12/03 13:47:14;;;;;;;26.52;8.48;;;;;;;;;;4992858;28;20061;-68
2022/12/03 13:49:51;;;;;;;25.17;8.27;;;;;;;;;;5000080;28;20097;-67
2022/12/03 13:52:39;;;;;;;25.98;8.77;;;;;;;;;;4999101;28;20154;-74
2022/12/03 13:55:25;;;;;;;23.98;8.02;;;;;;;;;;4956301;28;20135;-74
2022/12/03 13:57:53;;;;;;;26.98;8.77;;;;;;;;;;4956850;28;20053;-70
2022/12/03 14:03:12;;;;;;;29.95;9.25;;;;;;;;;;4966056;28;20140;-72
2022/12/03 14:05:41;;;;;;;39.25;10.13;;;;;;;;;;4940017;28;20117;-72
2022/12/03 14:08:09;;;;;;;30.02;8.70;;;;;;;;;;5017921;28;20076;-73
2022/12/03 14:10:38;;;;;;;28.40;9.68;;;;;;;;;;5011320;28;20087;-71
2022/12/03 14:13:26;;;;;;;25.60;9.15;;;;;;;;;;5013710;28;20291;-70
2022/12/03 14:16:17;;;;;;;23.92;8.60;;;;;;;;;;4991022;28;20371;-75
2022/12/03 14:18:51;;;;;;;29.77;8.68;;;;;;;;;;5023876;28;20109;-69
2022/12/03 14:21:26;;;;;;;25.80;9.45;;;;;;;;;;5004812;28;20440;-68
2022/12/03 14:23:52;;;;;;;29.88;8.77;;;;;;;;;;4992285;28;20064;-73
2022/12/03 14:26:19;;;;;;;28.48;8.82;;;;;;;;;;4989430;28;20044;-71
2022/12/03 14:28:47;;;;;;;29.27;8.48;;;;;;;;;;5011574;28;20052;-73
2022/12/03 14:31:18;;;;;;;27.73;9.15;;;;;;;;;;5003288;28;20057;-67
2022/12/03 14:33:44;;;;;;;24.38;8.68;;;;;;;;;;5008590;28;20053;-66
2022/12/03 14:36:11;;;;;;;29.33;9.27;;;;;;;;;;5001882;28;20056;-65
2022/12/03 14:38:37;;;;;;;27.38;8.73;;;;;;;;;;5026315;28;20064;-71
2022/12/03 14:42:11;;;;;;;28.13;9.52;;;;;;;;;;5007199;28;20053;-73
2022/12/03 14:43:58;;;;;;;28.08;8.32;;;;;;;;;;5023346;28;20061;-70
2022/12/03 14:46:24;;;;;;;28.60;8.20;;;;;;;;;;4997838;28;20090;-72
2022/12/03 14:48:51;;;;;;;24.75;8.30;;;;;;;;;;4996159;28;20049;-72
2022/12/03 14:51:18;;;;;;;24.85;8.80;;;;;;;;;;4997789;28;20049;-73
2022/12/03 14:53:44;;;;;;;26.88;8.93;;;;;;;;;;5032317;28;20427;-70
2022/12/03 14:56:14;;;;;;;23.92;8.88;;;;;;;;;;5018042;28;20063;-64
2022/12/03 14:58:40;;;;;;;21.52;8.02;;;;;;;;;;5027473;28;20063;-67
2022/12/03 15:01:09;;;;;;;25.55;8.20;;;;;;;;;;5045238;28;20120;-75
2022/12/03 15:03:36;;;;;;;28.10;8.25;;;;;;;;;;5040735;28;20075;-65
2022/12/03 15:06:05;;;;;;;26.27;8.43;;;;;;;;;;4989190;28;20050;-69
2022/12/03 15:08:32;;;;;;;24.63;8.18;;;;;;;;;;5006315;28;20057;-69
2022/12/03 15:10:59;;;;;;;29.92;8.73;;;;;;;;;;5013185;28;20053;-69
2022/12/03 15:13:25;;;;;;;27.90;8.40;;;;;;;;;;5014320;28;20044;-70
2022/12/03 15:15:52;;;;;;;26.85;9.60;;;;;;;;;;5009592;28;20116;-68
2022/12/03 15:18:20;;;;;;;26.52;9.07;;;;;;;;;;5024796;28;20068;-65
2022/12/03 15:20:49;;;;;;;24.60;8.63;;;;;;;;;;5037234;28;20075;-69
2022/12/03 15:23:16;;;;;;;24.77;8.55;;;;;;;;;;5036011;28;20056;-67
2022/12/03 15:25:43;;;;;;;28.92;8.93;;;;;;;;;;4998722;28;20547;-65
2022/12/03 15:28:09;;;;;;;23.50;7.32;;;;;;;;;;5042868;28;20067;-72
2022/12/03 15:30:36;;;;;;;26.60;8.55;;;;;;;;;;5034650;28;20145;-75
2022/12/03 15:33:14;;;;;;;24.67;8.90;;;;;;;;;;5049286;28;20068;-69
2022/12/03 15:35:43;;;;;;;25.13;7.65;;;;;;;;;;5030283;28;20060;-65
2022/12/03 15:38:12;;;;;;;28.05;8.43;;;;;;;;;;5059069;28;20330;-69
2022/12/03 15:40:39;;;;;;;26.13;8.32;;;;;;;;;;5050051;28;20052;-66